Time;durP1;ratioP1;P1;durP2;ratioP2;P2;SDS_P1;SDS_P2;PMS_P1;PMS_P2;Temp;Humidity;BMP_temperature;BMP_pressure;BME280_temperature;BME280_humidity;BME280_pressure;Samples;Min_cycle;Max_cycle;Signal;HPM_P1;HPM_P2
2022/10/28 00:02:05;;;;;;;14.70;8.32;;;;;;;16.48;73.62;101672.59;5036302;28;20032;-74
2022/10/28 00:04:30;;;;;;;12.88;8.00;;;;;;;16.44;73.61;101669.50;5032769;28;20037;-74
2022/10/28 00:06:56;;;;;;;12.93;7.80;;;;;;;16.42;73.98;101663.31;5033785;28;20104;-75
2022/10/28 00:09:21;;;;;;;14.57;8.02;;;;;;;16.43;74.07;101676.22;5032794;28;20128;-74
2022/10/28 00:11:46;;;;;;;17.95;8.18;;;;;;;16.40;73.79;101665.56;5033687;28;20033;-74
2022/10/28 00:14:12;;;;;;;17.38;8.02;;;;;;;16.34;73.88;101668.59;5051761;28;20032;-74
2022/10/28 00:16:37;;;;;;;12.82;8.02;;;;;;;16.32;73.96;101668.88;5053025;28;20141;-74
2022/10/28 00:19:05;;;;;;;13.55;7.90;;;;;;;16.31;73.63;101667.19;5037899;28;20029;-74
2022/10/28 00:21:32;;;;;;;11.95;7.72;;;;;;;16.29;73.50;101657.38;5044804;28;20029;-74
2022/10/28 00:23:58;;;;;;;15.05;8.30;;;;;;;16.27;73.21;101656.78;5036491;28;20036;-74
2022/10/28 00:26:30;;;;;;;13.73;8.23;;;;;;;16.25;73.50;101659.88;5033964;28;20343;-74
2022/10/28 00:29:04;;;;;;;14.65;7.80;;;;;;;16.24;73.33;101663.78;5039304;28;20060;-74
2022/10/28 00:31:31;;;;;;;16.15;8.45;;;;;;;16.17;73.10;101654.78;5031660;28;20531;-74
2022/10/28 00:34:01;;;;;;;16.08;8.30;;;;;;;16.13;73.27;101660.09;5037344;28;20037;-74
2022/10/28 00:36:30;;;;;;;13.50;8.20;;;;;;;16.12;73.31;101657.56;5036566;28;20036;-74
2022/10/28 00:38:55;;;;;;;17.35;8.63;;;;;;;16.13;73.05;101656.44;5048467;28;20468;-75
2022/10/28 00:41:22;;;;;;;19.45;9.40;;;;;;;16.09;73.31;101653.34;5036426;28;20056;-74
2022/10/28 00:43:50;;;;;;;13.30;8.38;;;;;;;16.05;73.52;101652.19;5053445;28;20075;-74
2022/10/28 00:46:37;;;;;;;15.95;8.85;;;;;;;16.03;73.59;101659.16;5045472;28;20028;-74
2022/10/28 00:49:17;;;;;;;20.00;9.48;;;;;;;16.00;73.62;101651.31;5049348;28;20366;-74
2022/10/28 00:51:45;;;;;;;13.85;8.77;;;;;;;15.99;73.29;101660.81;5038682;28;20029;-75
2022/10/28 00:54:12;;;;;;;12.93;8.43;;;;;;;15.95;73.16;101646.50;5051920;28;20041;-75
2022/10/28 00:56:41;;;;;;;14.80;8.88;;;;;;;15.94;73.29;101644.84;5051878;28;20032;-75
2022/10/28 00:59:15;;;;;;;13.75;7.68;;;;;;;15.90;73.27;101638.09;5043851;28;20042;-75
2022/10/28 01:01:40;;;;;;;13.15;8.02;;;;;;;15.89;73.21;101631.66;5040308;28;20033;-75
2022/10/28 01:04:07;;;;;;;12.27;7.63;;;;;;;15.89;73.19;101630.81;5046410;28;20036;-75
2022/10/28 01:06:32;;;;;;;17.38;8.57;;;;;;;15.81;73.12;101623.75;5039112;28;20415;-75
2022/10/28 01:08:59;;;;;;;12.13;7.82;;;;;;;15.83;73.37;101618.72;5045157;28;20033;-75
2022/10/28 01:12:06;;;;;;;17.15;8.00;;;;;;;15.87;73.36;101617.06;5039577;28;20030;-75
2022/10/28 01:14:37;;;;;;;11.45;6.90;;;;;;;15.80;73.06;101605.28;5039149;28;20029;-74
2022/10/28 01:17:05;;;;;;;15.13;7.68;;;;;;;15.81;72.36;101617.31;5052302;28;20123;-75
2022/10/28 01:19:55;;;;;;;15.73;8.07;;;;;;;15.79;73.11;101623.16;5040403;28;20464;-75
2022/10/28 01:22:37;;;;;;;14.98;7.85;;;;;;;15.68;72.95;101613.03;5036635;28;20392;-75
2022/10/28 01:25:29;;;;;;;13.93;7.72;;;;;;;15.73;72.90;101617.81;5039408;28;20034;-75
2022/10/28 01:28:00;;;;;;;13.70;7.15;;;;;;;15.67;72.86;101623.38;5038607;28;20038;-75
2022/10/28 01:30:32;;;;;;;15.97;7.73;;;;;;;15.63;72.85;101618.53;5036197;28;20029;-75
2022/10/28 01:32:58;;;;;;;;;;;;;;;15.84;72.70;101620.44;5034288;28;20033;-75
2022/10/28 01:35:48;;;;;;;13.20;6.60;;;;;;;15.65;72.73;101606.00;5040885;28;19923;-75
2022/10/28 01:38:34;;;;;;;11.75;7.30;;;;;;;15.61;72.56;101607.63;5043868;28;20309;-74
2022/10/28 01:41:35;;;;;;;11.95;7.60;;;;;;;15.57;72.61;101617.69;5051538;28;20029;-74
2022/10/28 01:44:17;;;;;;;14.18;7.35;;;;;;;15.58;72.44;101608.16;5040144;28;20206;-74
2022/10/28 01:46:48;;;;;;;19.20;7.85;;;;;;;15.54;72.70;101607.00;5048973;28;20599;-75
2022/10/28 01:49:38;;;;;;;11.77;7.63;;;;;;;15.48;72.81;101599.69;5032397;28;20017;-75
2022/10/28 01:52:08;;;;;;;13.88;7.13;;;;;;;15.48;72.36;101602.47;5032312;28;20117;-75
2022/10/28 01:54:36;;;;;;;12.32;7.28;;;;;;;15.46;72.37;101608.34;5033491;28;20151;-75
2022/10/28 01:57:03;;;;;;;11.88;6.88;;;;;;;15.39;72.23;101604.94;5051567;28;20036;-75
2022/10/28 01:59:30;;;;;;;10.52;6.57;;;;;;;15.41;72.43;101607.47;5042860;28;20025;-75
2022/10/28 02:01:58;;;;;;;10.70;6.93;;;;;;;15.40;72.49;101609.41;5045720;28;20033;-75
2022/10/28 02:04:24;;;;;;;15.73;6.72;;;;;;;15.36;72.52;101605.47;5038302;28;20049;-75
2022/10/28 02:06:56;;;;;;;11.82;6.75;;;;;;;15.36;72.90;101605.47;5033026;28;20778;-75
2022/10/28 02:09:27;;;;;;;12.10;6.85;;;;;;;15.36;72.57;101597.06;5033949;28;20395;-75
2022/10/28 02:12:14;;;;;;;14.10;6.88;;;;;;;15.39;72.68;101595.69;5031981;28;20033;-75
2022/10/28 02:14:57;;;;;;;14.27;6.90;;;;;;;15.33;72.75;101596.78;5033459;28;20538;-75
2022/10/28 02:17:51;;;;;;;14.10;6.57;;;;;;;15.35;72.65;101597.34;5049081;28;20506;-75
2022/10/28 02:20:31;;;;;;;13.30;6.65;;;;;;;15.28;72.83;101594.75;5051140;28;20488;-75
2022/10/28 02:23:10;;;;;;;11.05;6.28;;;;;;;15.27;72.70;101598.69;5033721;28;20025;-76
2022/10/28 02:25:44;;;;;;;10.48;6.00;;;;;;;15.25;72.67;101600.91;5031859;28;20032;-75
2022/10/28 02:28:15;;;;;;;13.23;5.82;;;;;;;15.26;72.49;101598.97;5039946;28;20025;-75
2022/10/28 02:30:56;;;;;;;10.77;6.30;;;;;;;15.23;72.52;101597.53;5051389;28;20086;-76
2022/10/28 02:33:27;;;;;;;11.13;5.97;;;;;;;15.23;72.42;101598.38;5050600;28;20027;-75
2022/10/28 02:35:57;;;;;;;12.10;5.95;;;;;;;15.20;72.73;101586.88;5050309;28;20814;-75
2022/10/28 02:38:44;;;;;;;16.13;5.93;;;;;;;15.27;72.73;101593.09;5051003;28;20082;-75
2022/10/28 02:41:19;;;;;;;10.60;5.38;;;;;;;15.21;72.65;101580.19;5051483;28;20040;-75
2022/10/28 02:43:49;;;;;;;12.05;5.18;;;;;;;15.21;73.66;101580.19;5051788;28;20102;-75
2022/10/28 02:46:17;;;;;;;11.73;6.20;;;;;;;15.22;72.94;101585.50;5051020;28;20017;-75
2022/10/28 02:48:47;;;;;;;11.93;5.72;;;;;;;15.22;72.86;101593.06;5052891;28;20518;-75
2022/10/28 02:51:17;;;;;;;11.32;5.20;;;;;;;15.24;73.00;101593.59;5050152;28;20028;-75
2022/10/28 02:54:05;;;;;;;12.48;5.70;;;;;;;15.29;73.03;101596.47;5049640;28;20060;-75
2022/10/28 02:56:37;;;;;;;11.93;5.00;;;;;;;15.28;73.25;101594.75;5052057;28;20029;-75
2022/10/28 02:59:02;;;;;;;9.48;4.95;;;;;;;15.31;74.25;101577.47;5044747;28;20030;-75
2022/10/28 03:01:30;;;;;;;13.88;5.75;;;;;;;15.35;73.37;101577.75;5031643;28;20049;-76
2022/10/28 03:03:55;;;;;;;11.85;5.18;;;;;;;15.35;73.06;101578.59;5037343;28;20415;-76
2022/10/28 03:06:21;;;;;;;9.25;4.90;;;;;;;15.28;73.50;101575.19;5051508;28;20078;-76
2022/10/28 03:08:46;;;;;;;14.90;5.63;;;;;;;15.41;74.22;101582.31;5050949;28;20044;-75
2022/10/28 03:11:11;;;;;;;15.25;5.72;;;;;;;15.42;73.71;101582.03;5050603;28;20033;-76
2022/10/28 03:13:36;;;;;;;13.23;5.45;;;;;;;15.47;74.36;101581.22;5052001;28;20754;-76
2022/10/28 03:16:05;;;;;;;14.40;5.22;;;;;;;15.55;74.21;101577.06;5049039;28;20048;-75
2022/10/28 03:18:33;;;;;;;9.98;4.70;;;;;;;15.55;74.24;101569.53;5036650;28;20032;-74
2022/10/28 03:20:58;;;;;;;8.90;4.80;;;;;;;15.61;74.17;101573.22;5035871;28;20830;-74
2022/10/28 03:23:33;;;;;;;14.18;5.10;;;;;;;15.64;73.86;101575.44;5036421;28;20041;-76
2022/10/28 03:25:58;;;;;;;13.00;5.22;;;;;;;15.63;73.84;101566.22;5034771;28;20036;-73
2022/10/28 03:28:23;;;;;;;13.27;5.22;;;;;;;15.66;73.95;101576.06;5034293;28;20064;-74
2022/10/28 03:30:49;;;;;;;11.20;4.80;;;;;;;15.66;73.47;101579.72;5034008;28;20493;-74
2022/10/28 03:33:14;;;;;;;12.85;4.90;;;;;;;15.67;74.16;101577.75;5032279;28;20033;-74
2022/10/28 03:35:40;;;;;;;10.15;4.97;;;;;;;15.70;73.86;101571.63;5035771;28;20544;-74
2022/10/28 03:38:11;;;;;;;16.17;5.38;;;;;;;15.66;74.01;101574.09;5036746;28;20025;-74
2022/10/28 03:40:36;;;;;;;12.70;4.67;;;;;;;15.75;74.02;101568.84;5035050;28;20030;-74
2022/10/28 03:43:02;;;;;;;11.68;5.03;;;;;;;15.81;74.02;101569.72;5051357;28;20036;-74
2022/10/28 03:45:27;;;;;;;13.68;5.07;;;;;;;15.82;74.15;101568.63;5054981;28;20116;-74
2022/10/28 03:47:52;;;;;;;13.88;5.97;;;;;;;15.85;73.75;101566.13;5054274;28;20025;-75
2022/10/28 03:50:17;;;;;;;12.27;5.22;;;;;;;15.83;73.99;101562.72;5053044;28;20752;-75
2022/10/28 03:52:43;;;;;;;13.07;5.20;;;;;;;15.85;74.32;101566.13;5054916;28;20032;-74
2022/10/28 03:55:09;;;;;;;13.25;5.03;;;;;;;15.89;73.67;101560.81;5053765;28;20449;-75
2022/10/28 03:57:34;;;;;;;13.77;4.75;;;;;;;15.82;73.84;101569.44;5055373;28;20029;-75
2022/10/28 03:59:59;;;;;;;13.27;4.47;;;;;;;15.88;73.91;101565.59;5052946;28;20029;-75
2022/10/28 04:02:25;;;;;;;15.75;5.30;;;;;;;15.91;73.76;101566.97;5052626;28;20090;-75
2022/10/28 04:04:51;;;;;;;13.70;5.40;;;;;;;15.90;73.68;101562.50;5054164;28;20116;-75
2022/10/28 04:07:18;;;;;;;12.82;4.68;;;;;;;15.90;73.63;101571.72;5053018;28;20468;-75
2022/10/28 04:09:44;;;;;;;10.73;4.90;;;;;;;15.93;73.70;101565.59;5053151;28;20057;-75
2022/10/28 04:12:09;;;;;;;8.38;4.85;;;;;;;15.97;73.67;101562.25;5054226;28;20472;-75
2022/10/28 04:14:37;;;;;;;10.07;5.05;;;;;;;15.95;73.48;101562.50;5053859;28;20024;-75
2022/10/28 04:17:03;;;;;;;14.18;5.00;;;;;;;15.95;73.55;101568.13;5050888;28;20028;-75
2022/10/28 04:19:31;;;;;;;14.90;5.53;;;;;;;15.97;73.52;101576.25;5042429;28;20032;-75
2022/10/28 04:21:56;;;;;;;16.63;5.18;;;;;;;15.93;73.78;101582.41;5034496;28;20167;-75
2022/10/28 04:24:22;;;;;;;16.77;5.82;;;;;;;15.99;73.60;101580.47;5048876;28;20114;-75
2022/10/28 04:26:47;;;;;;;12.48;4.85;;;;;;;16.00;73.42;101570.97;5053819;28;20037;-74
2022/10/28 04:29:15;;;;;;;15.50;4.72;;;;;;;16.02;73.22;101574.31;5053201;28;20024;-74
2022/10/28 04:31:40;;;;;;;12.75;4.70;;;;;;;16.00;73.49;101570.97;5046742;28;20029;-74
2022/10/28 04:34:06;;;;;;;11.00;4.63;;;;;;;16.01;73.32;101580.22;5037151;28;20064;-74
2022/10/28 04:36:34;;;;;;;13.65;5.40;;;;;;;15.96;73.41;101575.44;5034091;28;20033;-74
2022/10/28 04:38:59;;;;;;;12.93;5.25;;;;;;;15.99;73.54;101571.22;5033562;28;20089;-75
2022/10/28 04:41:25;;;;;;;15.90;5.28;;;;;;;15.98;73.39;101577.94;5040779;28;20216;-74
2022/10/28 04:43:50;;;;;;;9.80;4.82;;;;;;;16.01;73.34;101578.25;5034381;28;20048;-74
2022/10/28 04:46:15;;;;;;;14.43;5.05;;;;;;;15.99;73.25;101568.41;5032712;28;20033;-75
2022/10/28 04:48:40;;;;;;;13.50;5.43;;;;;;;16.01;73.25;101572.63;5032947;28;20037;-75
2022/10/28 04:51:06;;;;;;;17.60;5.07;;;;;;;15.98;73.18;101575.97;5039549;28;20490;-75
2022/10/28 04:53:31;;;;;;;11.25;4.90;;;;;;;15.99;73.32;101574.00;5032950;28;20038;-74
2022/10/28 04:55:57;;;;;;;12.65;5.07;;;;;;;15.95;73.27;101570.91;5033512;28;20041;-74
2022/10/28 04:58:23;;;;;;;17.40;5.95;;;;;;;15.94;73.36;101560.84;5032217;28;20564;-74
2022/10/28 05:00:49;;;;;;;13.95;5.47;;;;;;;15.94;73.06;101566.44;5033694;28;20044;-75
2022/10/28 05:03:14;;;;;;;14.70;4.80;;;;;;;15.94;73.16;101567.28;5041329;28;20522;-74
2022/10/28 05:05:40;;;;;;;18.58;5.90;;;;;;;15.92;73.34;101563.91;5033029;28;20411;-74
2022/10/28 05:08:05;;;;;;;14.50;5.15;;;;;;;15.95;73.24;101563.38;5033873;28;20481;-75
2022/10/28 05:10:31;;;;;;;11.95;4.93;;;;;;;15.96;73.10;101561.44;5049459;28;20029;-74
2022/10/28 05:12:56;;;;;;;11.00;5.47;;;;;;;15.94;73.19;101561.69;5032774;28;20336;-74
2022/10/28 05:15:22;;;;;;;14.90;5.32;;;;;;;15.95;73.23;101570.91;5032804;28;20033;-74
2022/10/28 05:17:47;;;;;;;12.43;5.95;;;;;;;15.93;73.30;101570.34;5043332;28;20029;-74
2022/10/28 05:20:15;;;;;;;13.05;5.78;;;;;;;15.94;73.09;101564.47;5031867;28;20469;-74
2022/10/28 05:22:52;;;;;;;12.93;5.63;;;;;;;15.94;73.47;101578.47;5036454;28;20781;-74
2022/10/28 05:25:21;;;;;;;19.38;5.43;;;;;;;15.95;72.84;101566.19;5045810;28;20029;-75
2022/10/28 05:27:46;;;;;;;14.48;5.30;;;;;;;15.92;73.13;101563.91;5039254;28;20107;-75
2022/10/28 05:30:13;;;;;;;16.30;5.60;;;;;;;15.93;73.06;101560.00;5052449;28;20045;-75
2022/10/28 05:32:38;;;;;;;18.40;5.78;;;;;;;15.90;73.25;101560.53;5053242;28;20075;-75
2022/10/28 05:35:04;;;;;;;14.43;5.75;;;;;;;15.92;73.43;101558.31;5047419;28;20073;-74
2022/10/28 05:37:29;;;;;;;14.82;5.18;;;;;;;15.93;73.00;101564.75;5032502;28;20045;-74
2022/10/28 05:39:55;;;;;;;14.43;5.20;;;;;;;15.92;73.02;101549.09;5035057;28;20018;-74
2022/10/28 05:42:20;;;;;;;12.68;4.65;;;;;;;15.95;73.13;101551.31;5039373;28;20059;-74
2022/10/28 05:44:45;;;;;;;15.93;5.22;;;;;;;15.94;73.14;101558.88;5036312;28;20033;-73
2022/10/28 05:47:10;;;;;;;16.10;4.90;;;;;;;15.93;73.04;101559.16;5031310;28;20057;-73
2022/10/28 05:49:36;;;;;;;15.63;5.18;;;;;;;15.91;73.12;101562.22;5031783;28;20523;-73
2022/10/28 05:52:01;;;;;;;12.45;5.18;;;;;;;15.93;73.05;101554.41;5058073;28;20027;-73
2022/10/28 05:54:26;;;;;;;15.23;5.20;;;;;;;15.90;72.96;101562.50;5050481;28;20074;-73
2022/10/28 05:56:52;;;;;;;13.60;5.28;;;;;;;15.88;72.90;101559.16;5034473;28;20029;-73
2022/10/28 05:59:17;;;;;;;13.35;5.45;;;;;;;15.87;73.04;101555.47;5043302;28;20087;-73
2022/10/28 06:01:42;;;;;;;13.80;5.50;;;;;;;15.89;73.09;101556.06;5030368;28;20789;-74
2022/10/28 06:04:07;;;;;;;18.52;6.13;;;;;;;15.89;73.07;101560.81;5042461;28;20029;-74
2022/10/28 06:06:33;;;;;;;16.98;5.90;;;;;;;15.86;73.13;101559.41;5035020;28;20021;-74
2022/10/28 06:08:59;;;;;;;17.38;6.28;;;;;;;15.84;73.16;101563.59;5032524;28;20032;-74
2022/10/28 06:11:24;;;;;;;14.52;6.10;;;;;;;15.82;73.26;101563.84;5038945;28;20091;-74
2022/10/28 06:13:49;;;;;;;22.58;6.38;;;;;;;15.84;73.20;101558.84;5046610;28;20105;-74
2022/10/28 06:16:15;;;;;;;13.90;6.20;;;;;;;15.83;73.40;101564.69;5035465;28;20029;-74
2022/10/28 06:18:40;;;;;;;13.77;5.70;;;;;;;15.80;73.39;101568.91;5039186;28;20411;-74
2022/10/28 06:21:06;;;;;;;21.05;6.13;;;;;;;15.82;73.31;101572.25;5046728;28;20039;-74
2022/10/28 06:23:31;;;;;;;15.05;6.53;;;;;;;15.81;73.39;101573.38;5044548;28;20033;-74
2022/10/28 06:26:01;;;;;;;23.40;6.60;;;;;;;15.81;73.33;101573.38;5032117;28;20064;-75
2022/10/28 06:28:26;;;;;;;15.23;5.68;;;;;;;15.80;73.47;101571.69;5038913;28;20031;-74
2022/10/28 06:30:52;;;;;;;15.00;6.05;;;;;;;15.79;73.42;101567.19;5031186;28;20104;-74
2022/10/28 06:33:17;;;;;;;13.38;6.57;;;;;;;15.80;73.54;101568.91;5038231;28;20037;-74
2022/10/28 06:35:43;;;;;;;16.45;6.40;;;;;;;15.81;73.40;101576.16;5044461;28;20055;-73
2022/10/28 06:38:08;;;;;;;15.80;5.97;;;;;;;15.81;73.97;101578.97;5033079;28;20041;-72
2022/10/28 06:40:34;;;;;;;16.60;6.40;;;;;;;15.82;73.44;101563.00;5036917;28;20044;-74
2022/10/28 06:43:05;;;;;;;17.23;6.53;;;;;;;15.83;73.59;101570.28;5033723;28;20032;-73
2022/10/28 06:45:32;;;;;;;14.20;6.18;;;;;;;15.77;73.66;101571.38;5028612;28;20041;-73
2022/10/28 06:48:00;;;;;;;19.27;6.57;;;;;;;15.78;73.58;101573.91;5028094;28;20036;-75
2022/10/28 06:50:26;;;;;;;17.77;7.47;;;;;;;15.79;73.52;101567.19;5027996;28;20033;-72
2022/10/28 06:52:54;;;;;;;17.48;6.85;;;;;;;15.79;73.73;101569.97;5029093;28;20403;-70
2022/10/28 06:55:20;;;;;;;13.15;7.18;;;;;;;15.80;73.70;101570.81;5028024;28;20025;-71
2022/10/28 06:57:45;;;;;;;19.05;6.55;;;;;;;15.78;73.97;101564.66;5030337;28;20022;-73
2022/10/28 07:00:11;;;;;;;15.27;6.28;;;;;;;15.83;73.68;101570.28;5047096;28;20413;-72
2022/10/28 07:02:36;;;;;;;18.02;5.97;;;;;;;15.80;73.84;101565.22;5039367;28;20029;-71
2022/10/28 07:05:02;;;;;;;20.75;6.03;;;;;;;15.83;73.84;101565.53;5038992;28;20036;-72
2022/10/28 07:07:27;;;;;;;17.05;6.03;;;;;;;15.84;73.97;101567.25;5048934;28;20522;-72
2022/10/28 07:09:52;;;;;;;19.50;7.07;;;;;;;15.85;73.83;101568.06;5046694;28;20033;-71
2022/10/28 07:12:17;;;;;;;13.65;6.57;;;;;;;15.86;73.94;101569.75;5042596;28;20033;-71
2022/10/28 07:14:43;;;;;;;16.27;6.72;;;;;;;15.87;73.84;101566.66;5035160;28;20025;-70
2022/10/28 07:17:08;;;;;;;20.58;6.57;;;;;;;15.83;74.31;101571.13;5041177;28;20381;-70
2022/10/28 07:19:34;;;;;;;30.15;6.75;;;;;;;15.89;74.02;101567.25;5042544;28;20040;-75
2022/10/28 07:21:59;;;;;;;16.63;5.93;;;;;;;15.91;74.16;101572.56;5033478;28;20032;-73
2022/10/28 07:24:24;;;;;;;16.95;6.57;;;;;;;15.93;73.97;101582.41;5052632;28;20749;-72
2022/10/28 07:26:50;;;;;;;16.33;6.35;;;;;;;15.94;74.19;101581.28;5045559;28;20047;-72
2022/10/28 07:29:15;;;;;;;15.25;6.78;;;;;;;15.99;74.06;101588.84;5039637;28;20025;-71
2022/10/28 07:31:41;;;;;;;19.67;6.55;;;;;;;15.99;74.22;101588.03;5046444;28;20038;-73
2022/10/28 07:34:06;;;;;;;14.35;6.30;;;;;;;16.02;74.20;101591.13;5037619;28;20057;-75
2022/10/28 07:36:31;;;;;;;15.55;6.35;;;;;;;16.04;74.17;101588.06;5040028;28;20025;-73
2022/10/28 07:39:03;;;;;;;17.30;6.53;;;;;;;16.06;74.29;101597.03;5042263;28;20056;-72
2022/10/28 07:41:28;;;;;;;16.80;6.40;;;;;;;16.10;74.20;101592.56;5041705;28;20018;-73
2022/10/28 07:43:54;;;;;;;14.05;6.68;;;;;;;16.11;74.19;101583.91;5044216;28;20035;-73
2022/10/28 07:46:19;;;;;;;16.17;6.53;;;;;;;16.15;74.33;101579.44;5047294;28;20029;-72
2022/10/28 07:48:44;;;;;;;11.82;6.13;;;;;;;16.19;74.16;101582.50;5031115;28;20048;-73
2022/10/28 07:51:12;;;;;;;13.40;6.07;;;;;;;16.24;74.16;101588.16;5047902;28;20073;-71
2022/10/28 07:53:38;;;;;;;17.77;6.28;;;;;;;16.28;74.15;101578.09;5040328;28;20033;-69
2022/10/28 07:56:08;;;;;;;18.20;5.97;;;;;;;16.32;74.11;101569.97;5047466;28;20033;-71
2022/10/28 07:58:34;;;;;;;24.23;7.00;;;;;;;16.38;74.04;101568.88;5039384;28;20152;-71
2022/10/28 08:01:05;;;;;;;15.50;6.55;;;;;;;16.43;73.84;101569.75;5040254;28;20585;-69
2022/10/28 08:03:33;;;;;;;20.10;6.22;;;;;;;16.50;73.93;101575.06;5049080;28;20040;-70
2022/10/28 08:06:04;;;;;;;18.52;6.78;;;;;;;16.55;73.65;101577.91;5044227;28;20068;-71
2022/10/28 08:08:29;;;;;;;13.52;6.50;;;;;;;16.63;73.56;101573.72;5040336;28;20109;-71
2022/10/28 08:10:55;;;;;;;14.23;6.10;;;;;;;16.69;73.27;101578.22;5035273;28;20025;-72
2022/10/28 08:13:20;;;;;;;15.05;5.93;;;;;;;16.75;73.43;101588.38;5044626;28;20044;-71
2022/10/28 08:15:54;;;;;;;18.20;6.80;;;;;;;16.82;73.17;101588.94;5045941;28;20069;-72
2022/10/28 08:18:20;;;;;;;17.92;6.13;;;;;;;16.88;72.85;101599.03;5032909;28;20065;-72
2022/10/28 08:20:46;;;;;;;16.27;5.82;;;;;;;16.93;72.59;101609.41;5043221;28;20035;-72
2022/10/28 08:23:12;;;;;;;19.55;5.80;;;;;;;16.96;72.83;101602.41;5048885;28;20405;-72
2022/10/28 08:25:37;;;;;;;13.48;5.55;;;;;;;16.97;72.42;101601.28;5052555;28;20025;-72
2022/10/28 08:28:02;;;;;;;15.25;5.65;;;;;;;16.97;72.77;101599.34;5052605;28;20039;-72
2022/10/28 08:30:28;;;;;;;19.35;5.20;;;;;;;16.98;72.73;101602.97;5038151;28;20036;-70
2022/10/28 08:32:56;;;;;;;18.17;5.90;;;;;;;16.99;72.78;101601.88;5041391;28;20063;-72
2022/10/28 08:35:21;;;;;;;14.70;6.45;;;;;;;16.99;72.70;101602.72;5042723;28;20061;-72
2022/10/28 08:37:50;;;;;;;14.05;5.90;;;;;;;17.00;72.75;101604.38;5041662;28;20024;-67
2022/10/28 08:40:16;;;;;;;16.13;5.80;;;;;;;17.05;72.84;101606.34;5037171;28;20803;-73
2022/10/28 08:42:53;;;;;;;20.48;6.38;;;;;;;17.10;72.91;101607.22;5037853;28;20045;-74
2022/10/28 08:45:22;;;;;;;19.75;5.93;;;;;;;17.14;72.77;101599.94;5050463;28;20041;-74
2022/10/28 08:48:01;;;;;;;14.77;5.65;;;;;;;17.18;73.07;101592.63;5046097;28;20029;-69
2022/10/28 08:50:30;;;;;;;18.35;5.93;;;;;;;17.25;72.54;101592.38;5041409;28;20094;-71
2022/10/28 08:53:05;;;;;;;16.25;5.80;;;;;;;17.36;72.69;101581.97;5044249;28;20112;-72
2022/10/28 08:55:49;;;;;;;14.68;5.57;;;;;;;17.41;72.14;101585.63;5052317;28;20112;-70
2022/10/28 08:58:29;;;;;;;13.15;5.68;;;;;;;17.53;72.04;101587.31;5047515;28;20036;-68
2022/10/28 09:00:58;;;;;;;11.10;4.88;;;;;;;17.59;72.10;101597.41;5049761;28;20021;-69
2022/10/28 09:03:43;;;;;;;15.93;5.57;;;;;;;17.62;71.87;101592.06;5048062;28;20041;-69
2022/10/28 09:06:09;;;;;;;19.85;5.65;;;;;;;17.65;71.95;101593.47;5033105;28;20120;-71
2022/10/28 09:08:47;;;;;;;17.35;5.38;;;;;;;17.70;71.99;101599.06;5052887;28;20025;-68
2022/10/28 09:11:34;;;;;;;16.02;5.90;;;;;;;17.72;71.73;101598.78;5046118;28;20350;-69
2022/10/28 09:13:59;;;;;;;19.05;6.32;;;;;;;17.80;70.88;101601.03;5037536;28;20025;-67
2022/10/28 09:16:39;;;;;;;12.07;5.72;;;;;;;17.85;71.30;101604.69;5048228;28;20476;-67
2022/10/28 09:19:31;;;;;;;18.67;5.97;;;;;;;17.96;71.42;101605.53;5049010;28;20119;-65
2022/10/28 09:22:12;;;;;;;14.57;6.07;;;;;;;18.10;70.77;101603.78;5037063;28;20480;-73
2022/10/28 09:24:51;;;;;;;15.50;5.63;;;;;;;18.21;70.33;101610.22;5036370;28;20043;-71
2022/10/28 09:27:41;;;;;;;25.40;5.10;;;;;;;18.33;70.80;101601.47;5050074;28;20421;-68
2022/10/28 09:30:26;;;;;;;19.70;6.18;;;;;;;18.43;70.17;101606.19;5043425;28;20037;-72
2022/10/28 09:33:07;;;;;;;13.65;5.18;;;;;;;18.45;69.36;101601.97;5047089;28;20035;-70
2022/10/28 09:35:40;;;;;;;15.57;6.05;;;;;;;18.42;69.44;101601.69;5039281;28;20046;-70
2022/10/28 09:38:27;;;;;;;17.02;6.03;;;;;;;18.41;69.88;101614.91;5031413;28;20029;-73
2022/10/28 09:41:00;;;;;;;14.35;5.78;;;;;;;18.40;69.38;101607.63;5036124;28;20039;-70
2022/10/28 09:43:29;;;;;;;18.65;5.53;;;;;;;18.39;69.37;101615.22;5028860;28;20037;-70
2022/10/28 09:46:00;;;;;;;18.67;5.97;;;;;;;18.52;69.43;101613.75;5031038;28;20026;-70
2022/10/28 09:48:38;;;;;;;17.90;5.07;;;;;;;18.65;69.50;101613.13;5048716;28;20043;-70
2022/10/28 09:51:03;;;;;;;9.80;4.63;;;;;;;18.76;68.59;101619.56;5039758;28;20033;-70
2022/10/28 09:53:43;;;;;;;17.38;5.60;;;;;;;18.90;68.58;101622.56;5040056;28;20724;-70
2022/10/28 09:56:09;;;;;;;13.73;5.45;;;;;;;19.08;68.02;101623.88;5043150;28;20477;-70
2022/10/28 09:58:36;;;;;;;17.90;5.60;;;;;;;19.18;67.14;101622.94;5030018;28;20140;-72
2022/10/28 10:01:03;;;;;;;12.43;4.75;;;;;;;19.32;67.03;101622.00;5041668;28;20037;-66
2022/10/28 10:03:29;;;;;;;16.40;5.13;;;;;;;19.45;66.45;101617.66;5034465;28;20049;-68
2022/10/28 10:05:58;;;;;;;17.27;5.30;;;;;;;19.62;66.43;101617.28;5029791;28;20095;-71
2022/10/28 10:08:23;;;;;;;14.55;5.45;;;;;;;19.70;66.23;101608.19;5040965;28;20480;-72
2022/10/28 10:10:59;;;;;;;13.98;4.78;;;;;;;19.72;65.13;101617.19;5030421;28;20029;-72
2022/10/28 10:13:33;;;;;;;15.77;5.55;;;;;;;19.76;65.13;101611.78;5041049;28;20025;-72
2022/10/28 10:16:04;;;;;;;16.38;5.55;;;;;;;19.72;65.08;101616.34;5048878;28;20033;-72
2022/10/28 10:18:31;;;;;;;14.10;5.07;;;;;;;19.75;65.00;101621.38;5048520;28;20037;-72
2022/10/28 10:20:58;;;;;;;16.40;5.72;;;;;;;19.74;64.86;101614.09;5048591;28;20110;-72
2022/10/28 10:23:30;;;;;;;11.88;5.18;;;;;;;19.76;64.88;101615.44;5049540;28;20028;-72
2022/10/28 10:26:03;;;;;;;18.60;5.43;;;;;;;19.87;64.64;101613.38;5051143;28;20028;-72
2022/10/28 10:28:29;;;;;;;16.00;5.10;;;;;;;19.89;64.57;101611.13;5049920;28;20139;-72
2022/10/28 10:30:59;;;;;;;14.77;5.00;;;;;;;19.98;64.95;101606.50;5050313;28;20108;-71
2022/10/28 10:33:32;;;;;;;16.38;5.00;;;;;;;20.00;65.20;101609.88;5050447;28;20118;-72
2022/10/28 10:36:02;;;;;;;15.98;4.85;;;;;;;20.00;64.21;101609.00;5046490;28;20045;-72
2022/10/28 10:38:29;;;;;;;15.00;5.50;;;;;;;20.07;64.24;101601.03;5049914;28;20029;-72
2022/10/28 10:40:54;;;;;;;17.63;5.20;;;;;;;20.11;63.76;101600.13;5049926;28;20114;-72
2022/10/28 10:43:29;;;;;;;17.58;5.28;;;;;;;20.15;63.98;101585.44;5049095;28;20467;-72
2022/10/28 10:46:04;;;;;;;14.18;4.70;;;;;;;20.19;63.61;101593.00;5053359;28;20484;-71
2022/10/28 10:48:33;;;;;;;12.82;4.80;;;;;;;20.31;61.89;101584.97;5034890;28;20037;-72
2022/10/28 10:51:40;;;;;;;14.27;5.03;;;;;;;20.37;62.03;101574.47;5045981;28;20112;-70
2022/10/28 10:54:14;;;;;;;14.98;4.80;;;;;;;20.45;62.44;101587.91;5040638;28;20033;-72
2022/10/28 10:56:40;;;;;;;15.80;4.53;;;;;;;20.43;60.72;101573.25;5045843;28;20044;-73
2022/10/28 10:59:20;;;;;;;12.18;4.63;;;;;;;20.49;61.68;101591.00;5044950;28;20503;-65
2022/10/28 11:01:45;;;;;;;16.85;4.40;;;;;;;20.57;60.82;101604.41;5045089;28;20062;-74
2022/10/28 11:04:17;;;;;;;17.42;5.05;;;;;;;20.61;61.18;101597.03;5048925;28;20391;-73
2022/10/28 11:06:48;;;;;;;14.27;4.40;;;;;;;20.68;60.73;101599.47;5052856;28;20036;-73
2022/10/28 11:09:28;;;;;;;15.90;4.57;;;;;;;20.65;62.10;101591.63;5037812;28;20033;-70
2022/10/28 11:11:54;;;;;;;13.98;5.15;;;;;;;20.66;60.30;101587.66;5037393;28;20024;-69
2022/10/28 11:14:26;;;;;;;15.90;4.55;;;;;;;20.64;60.07;101587.97;5052265;28;20039;-69
2022/10/28 11:16:57;;;;;;;15.93;4.70;;;;;;;20.62;60.07;101583.75;5035216;28;20028;-73
2022/10/28 11:19:27;;;;;;;14.63;4.43;;;;;;;20.51;59.33;101581.06;5032764;28;20037;-72
2022/10/28 11:22:14;;;;;;;14.30;4.45;;;;;;;20.43;60.40;101570.44;5048083;28;20029;-70
2022/10/28 11:24:58;;;;;;;11.48;4.38;;;;;;;20.38;61.54;101572.50;5040102;28;20040;-74
2022/10/28 11:27:54;;;;;;;16.00;4.28;;;;;;;20.30;62.08;101574.84;5039797;28;20093;-74
2022/10/28 11:30:25;;;;;;;11.63;4.50;;;;;;;20.30;59.79;101574.84;5044599;28;20037;-73